sensor_id;sensor_type;location;lat;lon;timestamp;P1;durP1;ratioP1;P2;durP2;ratioP2
14209;SDS011;7188;56.070;12.698;2023-11-21T00:02:13;6.37;;;4.97;;
14209;SDS011;7188;56.070;12.698;2023-11-21T00:04:39;6.03;;;5.13;;
14209;SDS011;7188;56.070;12.698;2023-11-21T00:07:04;7.83;;;5.27;;
14209;SDS011;7188;56.070;12.698;2023-11-21T00:09:31;5.23;;;4.77;;
14209;SDS011;7188;56.070;12.698;2023-11-21T00:11:57;5.73;;;5.13;;
14209;SDS011;7188;56.070;12.698;2023-11-21T00:14:24;6.17;;;5.13;;
14209;SDS011;7188;56.070;12.698;2023-11-21T00:16:50;6.40;;;4.63;;
14209;SDS011;7188;56.070;12.698;2023-11-21T00:19:16;5.67;;;4.77;;
14209;SDS011;7188;56.070;12.698;2023-11-21T00:21:41;5.57;;;5.17;;
14209;SDS011;7188;56.070;12.698;2023-11-21T00:24:09;7.07;;;4.97;;
14209;SDS011;7188;56.070;12.698;2023-11-21T00:26:38;5.97;;;5.37;;
14209;SDS011;7188;56.070;12.698;2023-11-21T00:29:04;6.17;;;5.40;;
14209;SDS011;7188;56.070;12.698;2023-11-21T00:31:32;5.37;;;4.83;;
14209;SDS011;7188;56.070;12.698;2023-11-21T00:33:59;5.40;;;4.90;;
14209;SDS011;7188;56.070;12.698;2023-11-21T00:36:24;10.77;;;5.63;;
14209;SDS011;7188;56.070;12.698;2023-11-21T00:38:51;7.00;;;6.07;;
14209;SDS011;7188;56.070;12.698;2023-11-21T00:41:16;5.63;;;5.07;;
14209;SDS011;7188;56.070;12.698;2023-11-21T00:43:42;5.70;;;5.20;;
14209;SDS011;7188;56.070;12.698;2023-11-21T00:46:13;6.37;;;4.80;;
14209;SDS011;7188;56.070;12.698;2023-11-21T00:48:39;5.77;;;5.27;;
14209;SDS011;7188;56.070;12.698;2023-11-21T00:51:04;5.23;;;4.73;;
14209;SDS011;7188;56.070;12.698;2023-11-21T00:53:31;6.57;;;4.97;;
14209;SDS011;7188;56.070;12.698;2023-11-21T00:55:57;6.83;;;5.00;;
14209;SDS011;7188;56.070;12.698;2023-11-21T00:58:26;7.83;;;5.00;;
14209;SDS011;7188;56.070;12.698;2023-11-21T01:00:52;6.13;;;4.87;;
14209;SDS011;7188;56.070;12.698;2023-11-21T01:03:18;5.97;;;5.37;;
14209;SDS011;7188;56.070;12.698;2023-11-21T01:05:43;6.53;;;4.67;;
14209;SDS011;7188;56.070;12.698;2023-11-21T01:08:10;6.80;;;4.60;;
14209;SDS011;7188;56.070;12.698;2023-11-21T01:10:36;5.17;;;4.67;;
14209;SDS011;7188;56.070;12.698;2023-11-21T01:13:02;5.73;;;5.13;;
14209;SDS011;7188;56.070;12.698;2023-11-21T01:15:30;4.80;;;4.23;;
14209;SDS011;7188;56.070;12.698;2023-11-21T01:17:56;8.50;;;4.73;;
14209;SDS011;7188;56.070;12.698;2023-11-21T01:20:22;5.17;;;4.03;;
14209;SDS011;7188;56.070;12.698;2023-11-21T01:22:48;5.93;;;4.20;;
14209;SDS011;7188;56.070;12.698;2023-11-21T01:25:14;6.27;;;4.67;;
14209;SDS011;7188;56.070;12.698;2023-11-21T01:27:41;5.30;;;4.70;;
14209;SDS011;7188;56.070;12.698;2023-11-21T01:30:07;5.43;;;4.93;;
14209;SDS011;7188;56.070;12.698;2023-11-21T01:32:35;6.47;;;4.53;;
14209;SDS011;7188;56.070;12.698;2023-11-21T01:35:04;6.23;;;5.17;;
14209;SDS011;7188;56.070;12.698;2023-11-21T01:37:31;6.07;;;4.30;;
14209;SDS011;7188;56.070;12.698;2023-11-21T01:39:58;4.57;;;4.17;;
14209;SDS011;7188;56.070;12.698;2023-11-21T01:42:24;10.43;;;5.20;;
14209;SDS011;7188;56.070;12.698;2023-11-21T01:44:50;7.70;;;4.90;;
14209;SDS011;7188;56.070;12.698;2023-11-21T01:47:15;4.70;;;4.30;;
14209;SDS011;7188;56.070;12.698;2023-11-21T01:49:45;5.10;;;4.60;;
14209;SDS011;7188;56.070;12.698;2023-11-21T01:52:11;6.70;;;4.43;;
14209;SDS011;7188;56.070;12.698;2023-11-21T01:54:38;5.73;;;5.17;;
14209;SDS011;7188;56.070;12.698;2023-11-21T01:57:04;6.57;;;5.13;;
14209;SDS011;7188;56.070;12.698;2023-11-21T01:59:35;5.90;;;4.30;;
14209;SDS011;7188;56.070;12.698;2023-11-21T02:02:02;6.33;;;4.60;;
14209;SDS011;7188;56.070;12.698;2023-11-21T02:04:30;6.83;;;4.77;;
14209;SDS011;7188;56.070;12.698;2023-11-21T02:06:57;6.37;;;4.60;;
14209;SDS011;7188;56.070;12.698;2023-11-21T02:09:24;5.23;;;4.60;;
14209;SDS011;7188;56.070;12.698;2023-11-21T02:11:53;6.90;;;4.63;;
14209;SDS011;7188;56.070;12.698;2023-11-21T02:14:19;5.67;;;4.60;;
14209;SDS011;7188;56.070;12.698;2023-11-21T02:16:51;5.73;;;4.87;;
14209;SDS011;7188;56.070;12.698;2023-11-21T02:19:20;6.77;;;5.53;;
14209;SDS011;7188;56.070;12.698;2023-11-21T02:21:54;6.50;;;5.30;;
14209;SDS011;7188;56.070;12.698;2023-11-21T02:24:24;6.87;;;4.70;;
14209;SDS011;7188;56.070;12.698;2023-11-21T02:26:50;5.37;;;4.50;;
14209;SDS011;7188;56.070;12.698;2023-11-21T02:29:17;7.00;;;4.53;;
14209;SDS011;7188;56.070;12.698;2023-11-21T02:31:46;5.47;;;4.80;;
14209;SDS011;7188;56.070;12.698;2023-11-21T02:34:19;5.07;;;4.37;;
14209;SDS011;7188;56.070;12.698;2023-11-21T02:36:45;6.77;;;5.43;;
14209;SDS011;7188;56.070;12.698;2023-11-21T02:39:12;6.63;;;4.90;;
14209;SDS011;7188;56.070;12.698;2023-11-21T02:41:38;6.03;;;5.03;;
14209;SDS011;7188;56.070;12.698;2023-11-21T02:44:04;6.20;;;5.00;;
14209;SDS011;7188;56.070;12.698;2023-11-21T02:46:31;6.17;;;4.97;;
14209;SDS011;7188;56.070;12.698;2023-11-21T02:48:59;7.37;;;5.33;;
14209;SDS011;7188;56.070;12.698;2023-11-21T02:51:25;6.63;;;5.93;;
14209;SDS011;7188;56.070;12.698;2023-11-21T02:53:51;5.07;;;4.57;;
14209;SDS011;7188;56.070;12.698;2023-11-21T02:56:17;5.80;;;4.67;;
14209;SDS011;7188;56.070;12.698;2023-11-21T02:58:43;9.37;;;5.50;;
14209;SDS011;7188;56.070;12.698;2023-11-21T03:01:09;7.40;;;5.90;;
14209;SDS011;7188;56.070;12.698;2023-11-21T03:03:36;6.87;;;5.27;;
14209;SDS011;7188;56.070;12.698;2023-11-21T03:06:08;6.13;;;5.13;;
14209;SDS011;7188;56.070;12.698;2023-11-21T03:08:34;6.30;;;5.70;;
14209;SDS011;7188;56.070;12.698;2023-11-21T03:11:00;6.47;;;5.23;;
14209;SDS011;7188;56.070;12.698;2023-11-21T03:13:28;6.80;;;5.13;;
14209;SDS011;7188;56.070;12.698;2023-11-21T03:15:53;7.40;;;5.57;;
14209;SDS011;7188;56.070;12.698;2023-11-21T03:18:19;7.03;;;5.50;;
14209;SDS011;7188;56.070;12.698;2023-11-21T03:20:47;5.90;;;5.17;;
14209;SDS011;7188;56.070;12.698;2023-11-21T03:23:12;6.37;;;4.90;;
14209;SDS011;7188;56.070;12.698;2023-11-21T03:25:38;7.63;;;4.97;;
14209;SDS011;7188;56.070;12.698;2023-11-21T03:28:03;5.37;;;4.87;;
14209;SDS011;7188;56.070;12.698;2023-11-21T03:30:29;7.43;;;5.30;;
14209;SDS011;7188;56.070;12.698;2023-11-21T03:32:55;6.57;;;5.57;;
14209;SDS011;7188;56.070;12.698;2023-11-21T03:35:21;6.63;;;5.40;;
14209;SDS011;7188;56.070;12.698;2023-11-21T03:37:47;5.87;;;5.17;;
14209;SDS011;7188;56.070;12.698;2023-11-21T03:40:13;7.23;;;5.30;;
14209;SDS011;7188;56.070;12.698;2023-11-21T03:42:39;7.67;;;5.67;;
14209;SDS011;7188;56.070;12.698;2023-11-21T03:45:07;6.60;;;4.73;;
14209;SDS011;7188;56.070;12.698;2023-11-21T03:47:33;7.43;;;5.50;;
14209;SDS011;7188;56.070;12.698;2023-11-21T03:49:59;6.43;;;5.03;;
14209;SDS011;7188;56.070;12.698;2023-11-21T03:52:25;6.60;;;4.73;;
14209;SDS011;7188;56.070;12.698;2023-11-21T03:54:52;5.97;;;4.93;;
14209;SDS011;7188;56.070;12.698;2023-11-21T03:57:17;6.23;;;5.27;;
14209;SDS011;7188;56.070;12.698;2023-11-21T03:59:43;6.43;;;5.03;;
14209;SDS011;7188;56.070;12.698;2023-11-21T04:02:09;7.00;;;5.20;;
14209;SDS011;7188;56.070;12.698;2023-11-21T04:04:38;9.20;;;5.17;;
14209;SDS011;7188;56.070;12.698;2023-11-21T04:07:04;5.07;;;4.43;;
14209;SDS011;7188;56.070;12.698;2023-11-21T04:09:30;6.23;;;4.87;;
14209;SDS011;7188;56.070;12.698;2023-11-21T04:11:55;7.47;;;5.40;;
14209;SDS011;7188;56.070;12.698;2023-11-21T04:14:22;5.77;;;4.67;;
14209;SDS011;7188;56.070;12.698;2023-11-21T04:16:48;6.27;;;5.13;;
14209;SDS011;7188;56.070;12.698;2023-11-21T04:19:13;6.97;;;5.47;;
14209;SDS011;7188;56.070;12.698;2023-11-21T04:21:40;6.23;;;4.97;;
14209;SDS011;7188;56.070;12.698;2023-11-21T04:24:06;6.43;;;5.20;;
14209;SDS011;7188;56.070;12.698;2023-11-21T04:26:32;6.27;;;5.30;;
14209;SDS011;7188;56.070;12.698;2023-11-21T04:28:58;6.67;;;5.23;;
14209;SDS011;7188;56.070;12.698;2023-11-21T04:31:24;8.60;;;4.83;;
14209;SDS011;7188;56.070;12.698;2023-11-21T04:33:49;7.00;;;4.83;;
14209;SDS011;7188;56.070;12.698;2023-11-21T04:36:15;7.67;;;5.00;;
14209;SDS011;7188;56.070;12.698;2023-11-21T04:38:40;6.43;;;5.37;;
14209;SDS011;7188;56.070;12.698;2023-11-21T04:41:06;5.90;;;5.07;;
14209;SDS011;7188;56.070;12.698;2023-11-21T04:43:32;8.20;;;4.80;;
14209;SDS011;7188;56.070;12.698;2023-11-21T04:45:58;6.13;;;5.17;;
14209;SDS011;7188;56.070;12.698;2023-11-21T04:48:23;6.57;;;5.53;;
14209;SDS011;7188;56.070;12.698;2023-11-21T04:50:50;5.27;;;4.70;;
14209;SDS011;7188;56.070;12.698;2023-11-21T04:53:16;7.17;;;5.83;;
14209;SDS011;7188;56.070;12.698;2023-11-21T04:55:42;6.63;;;5.17;;
14209;SDS011;7188;56.070;12.698;2023-11-21T04:58:08;7.27;;;5.30;;
14209;SDS011;7188;56.070;12.698;2023-11-21T05:00:34;5.47;;;4.93;;
14209;SDS011;7188;56.070;12.698;2023-11-21T05:03:01;5.33;;;4.67;;
14209;SDS011;7188;56.070;12.698;2023-11-21T05:05:28;9.37;;;5.60;;
14209;SDS011;7188;56.070;12.698;2023-11-21T05:07:54;5.17;;;4.67;;
14209;SDS011;7188;56.070;12.698;2023-11-21T05:10:20;10.53;;;5.60;;
14209;SDS011;7188;56.070;12.698;2023-11-21T05:12:47;6.67;;;5.50;;
14209;SDS011;7188;56.070;12.698;2023-11-21T05:15:16;6.00;;;5.40;;
14209;SDS011;7188;56.070;12.698;2023-11-21T05:17:42;7.03;;;5.20;;
14209;SDS011;7188;56.070;12.698;2023-11-21T05:20:15;6.30;;;5.23;;
14209;SDS011;7188;56.070;12.698;2023-11-21T05:22:46;6.67;;;5.20;;
14209;SDS011;7188;56.070;12.698;2023-11-21T05:25:13;7.10;;;5.57;;
14209;SDS011;7188;56.070;12.698;2023-11-21T05:27:39;6.87;;;5.40;;
14209;SDS011;7188;56.070;12.698;2023-11-21T05:30:05;6.53;;;5.27;;
14209;SDS011;7188;56.070;12.698;2023-11-21T05:32:32;5.50;;;4.67;;
14209;SDS011;7188;56.070;12.698;2023-11-21T05:34:58;5.73;;;4.67;;
14209;SDS011;7188;56.070;12.698;2023-11-21T05:37:24;8.80;;;5.73;;
14209;SDS011;7188;56.070;12.698;2023-11-21T05:39:51;7.40;;;5.03;;
14209;SDS011;7188;56.070;12.698;2023-11-21T05:42:23;5.57;;;4.97;;
14209;SDS011;7188;56.070;12.698;2023-11-21T05:44:49;7.63;;;4.93;;
14209;SDS011;7188;56.070;12.698;2023-11-21T05:47:14;7.97;;;5.23;;
14209;SDS011;7188;56.070;12.698;2023-11-21T05:49:40;6.17;;;5.00;;
14209;SDS011;7188;56.070;12.698;2023-11-21T05:52:05;7.90;;;5.57;;
14209;SDS011;7188;56.070;12.698;2023-11-21T05:54:31;8.17;;;6.03;;
14209;SDS011;7188;56.070;12.698;2023-11-21T05:56:57;7.97;;;4.90;;
14209;SDS011;7188;56.070;12.698;2023-11-21T05:59:24;6.53;;;4.97;;
14209;SDS011;7188;56.070;12.698;2023-11-21T06:01:49;10.53;;;5.40;;
14209;SDS011;7188;56.070;12.698;2023-11-21T06:04:15;7.83;;;5.23;;
14209;SDS011;7188;56.070;12.698;2023-11-21T06:06:40;7.27;;;5.57;;
14209;SDS011;7188;56.070;12.698;2023-11-21T06:09:06;5.83;;;5.20;;
14209;SDS011;7188;56.070;12.698;2023-11-21T06:11:34;8.40;;;5.63;;
14209;SDS011;7188;56.070;12.698;2023-11-21T06:14:00;6.03;;;5.20;;
14209;SDS011;7188;56.070;12.698;2023-11-21T06:16:26;7.47;;;5.00;;
14209;SDS011;7188;56.070;12.698;2023-11-21T06:18:52;5.57;;;5.00;;
14209;SDS011;7188;56.070;12.698;2023-11-21T06:21:18;8.70;;;5.83;;
14209;SDS011;7188;56.070;12.698;2023-11-21T06:23:44;6.10;;;4.83;;
14209;SDS011;7188;56.070;12.698;2023-11-21T06:26:09;10.20;;;5.33;;
14209;SDS011;7188;56.070;12.698;2023-11-21T06:28:35;7.37;;;5.10;;
14209;SDS011;7188;56.070;12.698;2023-11-21T06:31:01;7.30;;;5.77;;
14209;SDS011;7188;56.070;12.698;2023-11-21T06:33:30;7.70;;;5.47;;
14209;SDS011;7188;56.070;12.698;2023-11-21T06:35:56;5.80;;;4.60;;
14209;SDS011;7188;56.070;12.698;2023-11-21T06:38:22;8.20;;;5.50;;
14209;SDS011;7188;56.070;12.698;2023-11-21T06:40:48;7.30;;;5.13;;
14209;SDS011;7188;56.070;12.698;2023-11-21T06:43:13;6.57;;;5.00;;
14209;SDS011;7188;56.070;12.698;2023-11-21T06:45:39;13.50;;;5.67;;
14209;SDS011;7188;56.070;12.698;2023-11-21T06:48:05;7.53;;;5.40;;
14209;SDS011;7188;56.070;12.698;2023-11-21T06:50:31;11.90;;;5.67;;
14209;SDS011;7188;56.070;12.698;2023-11-21T06:52:56;5.97;;;4.60;;
14209;SDS011;7188;56.070;12.698;2023-11-21T06:55:22;12.23;;;5.97;;
14209;SDS011;7188;56.070;12.698;2023-11-21T06:57:47;5.13;;;4.10;;
14209;SDS011;7188;56.070;12.698;2023-11-21T07:00:13;5.73;;;4.83;;
14209;SDS011;7188;56.070;12.698;2023-11-21T07:02:42;6.57;;;4.60;;
14209;SDS011;7188;56.070;12.698;2023-11-21T07:05:08;8.07;;;4.93;;
14209;SDS011;7188;56.070;12.698;2023-11-21T07:07:34;10.03;;;5.20;;
14209;SDS011;7188;56.070;12.698;2023-11-21T07:10:02;5.03;;;4.43;;
14209;SDS011;7188;56.070;12.698;2023-11-21T07:12:29;5.67;;;5.03;;
14209;SDS011;7188;56.070;12.698;2023-11-21T07:14:56;8.37;;;4.47;;
14209;SDS011;7188;56.070;12.698;2023-11-21T07:17:22;4.73;;;4.23;;
14209;SDS011;7188;56.070;12.698;2023-11-21T07:19:48;5.13;;;4.60;;
14209;SDS011;7188;56.070;12.698;2023-11-21T07:22:15;7.27;;;4.37;;
14209;SDS011;7188;56.070;12.698;2023-11-21T07:24:46;4.97;;;4.43;;
14209;SDS011;7188;56.070;12.698;2023-11-21T07:27:13;6.43;;;4.80;;
14209;SDS011;7188;56.070;12.698;2023-11-21T07:29:39;10.17;;;4.80;;
14209;SDS011;7188;56.070;12.698;2023-11-21T07:32:05;7.57;;;4.40;;
14209;SDS011;7188;56.070;12.698;2023-11-21T07:34:31;7.87;;;5.07;;
14209;SDS011;7188;56.070;12.698;2023-11-21T07:36:56;8.20;;;4.90;;
14209;SDS011;7188;56.070;12.698;2023-11-21T07:39:22;4.90;;;4.30;;
14209;SDS011;7188;56.070;12.698;2023-11-21T07:41:48;6.77;;;4.33;;
14209;SDS011;7188;56.070;12.698;2023-11-21T07:44:17;5.03;;;4.50;;
14209;SDS011;7188;56.070;12.698;2023-11-21T07:46:44;5.27;;;4.00;;
14209;SDS011;7188;56.070;12.698;2023-11-21T07:49:10;7.33;;;4.60;;
14209;SDS011;7188;56.070;12.698;2023-11-21T07:51:36;5.97;;;4.80;;
14209;SDS011;7188;56.070;12.698;2023-11-21T07:54:01;5.97;;;4.70;;
14209;SDS011;7188;56.070;12.698;2023-11-21T07:56:27;6.73;;;3.93;;
14209;SDS011;7188;56.070;12.698;2023-11-21T07:58:53;4.90;;;4.10;;
14209;SDS011;7188;56.070;12.698;2023-11-21T08:01:19;6.17;;;3.90;;
14209;SDS011;7188;56.070;12.698;2023-11-21T08:03:44;6.53;;;4.23;;
14209;SDS011;7188;56.070;12.698;2023-11-21T08:06:10;4.70;;;4.20;;
14209;SDS011;7188;56.070;12.698;2023-11-21T08:08:37;5.97;;;3.80;;
14209;SDS011;7188;56.070;12.698;2023-11-21T08:11:02;5.90;;;3.90;;
14209;SDS011;7188;56.070;12.698;2023-11-21T08:13:29;5.73;;;4.27;;
14209;SDS011;7188;56.070;12.698;2023-11-21T08:15:58;5.33;;;4.40;;
14209;SDS011;7188;56.070;12.698;2023-11-21T08:18:27;5.47;;;3.97;;
14209;SDS011;7188;56.070;12.698;2023-11-21T08:20:54;6.27;;;4.13;;
14209;SDS011;7188;56.070;12.698;2023-11-21T08:23:20;4.40;;;3.83;;
14209;SDS011;7188;56.070;12.698;2023-11-21T08:25:50;7.87;;;3.37;;
14209;SDS011;7188;56.070;12.698;2023-11-21T08:28:16;4.73;;;3.40;;
14209;SDS011;7188;56.070;12.698;2023-11-21T08:30:42;6.90;;;4.30;;
14209;SDS011;7188;56.070;12.698;2023-11-21T08:33:08;5.50;;;3.47;;
14209;SDS011;7188;56.070;12.698;2023-11-21T08:35:33;3.67;;;3.30;;
14209;SDS011;7188;56.070;12.698;2023-11-21T08:38:02;3.30;;;2.93;;
14209;SDS011;7188;56.070;12.698;2023-11-21T08:40:28;4.70;;;3.70;;
14209;SDS011;7188;56.070;12.698;2023-11-21T08:42:54;4.70;;;3.23;;
14209;SDS011;7188;56.070;12.698;2023-11-21T08:45:20;7.13;;;3.90;;
14209;SDS011;7188;56.070;12.698;2023-11-21T08:47:47;3.50;;;3.13;;
14209;SDS011;7188;56.070;12.698;2023-11-21T08:50:13;7.80;;;3.70;;
14209;SDS011;7188;56.070;12.698;2023-11-21T08:52:39;4.47;;;2.90;;
14209;SDS011;7188;56.070;12.698;2023-11-21T08:55:06;3.10;;;2.73;;
14209;SDS011;7188;56.070;12.698;2023-11-21T08:57:37;4.17;;;3.20;;
14209;SDS011;7188;56.070;12.698;2023-11-21T09:00:04;6.87;;;2.70;;
14209;SDS011;7188;56.070;12.698;2023-11-21T09:02:35;5.10;;;3.27;;
14209;SDS011;7188;56.070;12.698;2023-11-21T09:05:02;2.67;;;2.43;;
14209;SDS011;7188;56.070;12.698;2023-11-21T09:07:28;3.90;;;2.13;;
14209;SDS011;7188;56.070;12.698;2023-11-21T09:09:54;2.53;;;2.33;;
14209;SDS011;7188;56.070;12.698;2023-11-21T09:12:20;5.17;;;3.20;;
14209;SDS011;7188;56.070;12.698;2023-11-21T09:14:46;4.07;;;2.33;;
14209;SDS011;7188;56.070;12.698;2023-11-21T09:17:12;5.83;;;2.70;;
14209;SDS011;7188;56.070;12.698;2023-11-21T09:19:39;3.73;;;2.40;;
14209;SDS011;7188;56.070;12.698;2023-11-21T09:22:05;2.63;;;2.43;;
14209;SDS011;7188;56.070;12.698;2023-11-21T09:24:31;2.97;;;2.70;;
14209;SDS011;7188;56.070;12.698;2023-11-21T09:26:57;2.33;;;2.10;;
14209;SDS011;7188;56.070;12.698;2023-11-21T09:29:24;2.63;;;2.17;;
14209;SDS011;7188;56.070;12.698;2023-11-21T09:31:53;3.20;;;2.47;;
14209;SDS011;7188;56.070;12.698;2023-11-21T09:34:24;4.07;;;2.50;;
14209;SDS011;7188;56.070;12.698;2023-11-21T09:36:50;3.63;;;2.40;;
14209;SDS011;7188;56.070;12.698;2023-11-21T09:39:16;2.10;;;2.00;;
14209;SDS011;7188;56.070;12.698;2023-11-21T09:41:49;2.83;;;2.30;;
14209;SDS011;7188;56.070;12.698;2023-11-21T09:44:20;4.10;;;2.53;;
14209;SDS011;7188;56.070;12.698;2023-11-21T09:46:54;5.93;;;2.73;;
14209;SDS011;7188;56.070;12.698;2023-11-21T09:49:24;4.70;;;2.67;;
14209;SDS011;7188;56.070;12.698;2023-11-21T09:51:53;2.97;;;2.30;;
14209;SDS011;7188;56.070;12.698;2023-11-21T09:54:23;2.93;;;2.60;;
14209;SDS011;7188;56.070;12.698;2023-11-21T09:56:50;3.07;;;2.47;;
14209;SDS011;7188;56.070;12.698;2023-11-21T09:59:15;3.23;;;2.30;;
14209;SDS011;7188;56.070;12.698;2023-11-21T10:01:42;5.50;;;2.63;;
14209;SDS011;7188;56.070;12.698;2023-11-21T10:04:08;3.70;;;2.60;;
14209;SDS011;7188;56.070;12.698;2023-11-21T10:06:39;3.23;;;2.83;;
14209;SDS011;7188;56.070;12.698;2023-11-21T10:09:07;5.33;;;2.40;;
14209;SDS011;7188;56.070;12.698;2023-11-21T10:11:41;4.80;;;2.80;;
14209;SDS011;7188;56.070;12.698;2023-11-21T10:14:11;3.50;;;1.87;;
14209;SDS011;7188;56.070;12.698;2023-11-21T10:16:38;5.53;;;2.87;;
14209;SDS011;7188;56.070;12.698;2023-11-21T10:19:05;4.87;;;2.73;;
14209;SDS011;7188;56.070;12.698;2023-11-21T10:21:34;5.17;;;2.90;;
14209;SDS011;7188;56.070;12.698;2023-11-21T10:24:00;3.63;;;3.17;;
14209;SDS011;7188;56.070;12.698;2023-11-21T10:26:26;4.87;;;2.13;;
14209;SDS011;7188;56.070;12.698;2023-11-21T10:29:00;3.60;;;2.53;;
14209;SDS011;7188;56.070;12.698;2023-11-21T10:31:30;3.97;;;2.40;;
14209;SDS011;7188;56.070;12.698;2023-11-21T10:34:14;2.57;;;1.77;;
14209;SDS011;7188;56.070;12.698;2023-11-21T10:36:44;4.63;;;2.40;;
14209;SDS011;7188;56.070;12.698;2023-11-21T10:39:14;4.17;;;2.03;;
14209;SDS011;7188;56.070;12.698;2023-11-21T10:41:45;2.37;;;2.17;;
14209;SDS011;7188;56.070;12.698;2023-11-21T10:44:13;2.97;;;2.23;;
14209;SDS011;7188;56.070;12.698;2023-11-21T10:46:45;4.93;;;2.80;;
14209;SDS011;7188;56.070;12.698;2023-11-21T10:49:20;2.23;;;2.03;;
14209;SDS011;7188;56.070;12.698;2023-11-21T10:51:46;3.07;;;2.13;;
14209;SDS011;7188;56.070;12.698;2023-11-21T10:54:20;1.70;;;1.60;;
14209;SDS011;7188;56.070;12.698;2023-11-21T10:56:50;3.40;;;2.40;;
14209;SDS011;7188;56.070;12.698;2023-11-21T10:59:21;5.83;;;2.53;;
14209;SDS011;7188;56.070;12.698;2023-11-21T11:01:50;2.47;;;2.27;;
14209;SDS011;7188;56.070;12.698;2023-11-21T11:04:20;2.67;;;2.23;;
14209;SDS011;7188;56.070;12.698;2023-11-21T11:06:51;3.27;;;2.53;;
14209;SDS011;7188;56.070;12.698;2023-11-21T11:09:19;2.20;;;2.00;;
14209;SDS011;7188;56.070;12.698;2023-11-21T11:11:45;2.37;;;2.17;;
14209;SDS011;7188;56.070;12.698;2023-11-21T11:14:12;2.10;;;1.80;;
14209;SDS011;7188;56.070;12.698;2023-11-21T11:16:38;3.43;;;1.83;;
14209;SDS011;7188;56.070;12.698;2023-11-21T11:19:08;3.40;;;2.13;;
14209;SDS011;7188;56.070;12.698;2023-11-21T11:24:15;2.10;;;1.90;;
14209;SDS011;7188;56.070;12.698;2023-11-21T11:26:51;2.03;;;1.80;;
14209;SDS011;7188;56.070;12.698;2023-11-21T11:29:47;3.83;;;2.03;;
14209;SDS011;7188;56.070;12.698;2023-11-21T11:35:10;2.27;;;2.07;;
14209;SDS011;7188;56.070;12.698;2023-11-21T11:37:54;2.27;;;2.03;;
14209;SDS011;7188;56.070;12.698;2023-11-21T11:40:20;2.73;;;1.70;;
14209;SDS011;7188;56.070;12.698;2023-11-21T11:42:57;1.53;;;1.40;;
14209;SDS011;7188;56.070;12.698;2023-11-21T11:45:31;2.50;;;2.00;;
14209;SDS011;7188;56.070;12.698;2023-11-21T11:47:59;2.93;;;1.60;;
14209;SDS011;7188;56.070;12.698;2023-11-21T11:50:26;2.43;;;2.23;;
14209;SDS011;7188;56.070;12.698;2023-11-21T11:52:54;2.30;;;2.10;;
14209;SDS011;7188;56.070;12.698;2023-11-21T11:55:36;2.47;;;1.50;;
14209;SDS011;7188;56.070;12.698;2023-11-21T11:58:04;2.30;;;1.90;;
14209;SDS011;7188;56.070;12.698;2023-11-21T12:00:35;2.57;;;1.97;;
14209;SDS011;7188;56.070;12.698;2023-11-21T12:03:05;3.60;;;1.83;;
14209;SDS011;7188;56.070;12.698;2023-11-21T12:05:32;2.80;;;2.03;;
14209;SDS011;7188;56.070;12.698;2023-11-21T12:08:04;2.07;;;1.87;;
14209;SDS011;7188;56.070;12.698;2023-11-21T12:10:32;2.13;;;1.93;;
14209;SDS011;7188;56.070;12.698;2023-11-21T12:13:00;2.23;;;2.00;;
14209;SDS011;7188;56.070;12.698;2023-11-21T12:15:28;3.97;;;2.40;;
14209;SDS011;7188;56.070;12.698;2023-11-21T12:17:55;2.30;;;2.10;;
14209;SDS011;7188;56.070;12.698;2023-11-21T12:20:22;3.30;;;2.30;;
14209;SDS011;7188;56.070;12.698;2023-11-21T12:22:52;2.47;;;1.70;;
14209;SDS011;7188;56.070;12.698;2023-11-21T12:25:20;3.10;;;2.10;;
14209;SDS011;7188;56.070;12.698;2023-11-21T12:27:48;2.77;;;2.30;;
14209;SDS011;7188;56.070;12.698;2023-11-21T12:30:16;2.60;;;2.10;;
14209;SDS011;7188;56.070;12.698;2023-11-21T12:32:44;3.67;;;2.30;;
14209;SDS011;7188;56.070;12.698;2023-11-21T12:35:12;2.80;;;2.27;;
14209;SDS011;7188;56.070;12.698;2023-11-21T12:37:39;5.67;;;2.00;;
14209;SDS011;7188;56.070;12.698;2023-11-21T12:40:06;1.90;;;1.80;;
14209;SDS011;7188;56.070;12.698;2023-11-21T12:42:33;2.50;;;2.13;;
14209;SDS011;7188;56.070;12.698;2023-11-21T12:45:07;21.07;;;3.43;;
14209;SDS011;7188;56.070;12.698;2023-11-21T12:47:36;10.57;;;3.27;;
14209;SDS011;7188;56.070;12.698;2023-11-21T12:50:02;5.43;;;2.10;;
14209;SDS011;7188;56.070;12.698;2023-11-21T12:52:30;5.40;;;2.23;;
14209;SDS011;7188;56.070;12.698;2023-11-21T12:54:56;3.07;;;1.90;;
14209;SDS011;7188;56.070;12.698;2023-11-21T12:57:25;2.37;;;2.03;;
14209;SDS011;7188;56.070;12.698;2023-11-21T12:59:56;3.03;;;1.90;;
14209;SDS011;7188;56.070;12.698;2023-11-21T13:02:25;2.90;;;2.10;;
14209;SDS011;7188;56.070;12.698;2023-11-21T13:04:52;3.00;;;1.67;;
14209;SDS011;7188;56.070;12.698;2023-11-21T13:07:19;2.97;;;1.90;;
14209;SDS011;7188;56.070;12.698;2023-11-21T13:09:45;1.90;;;1.80;;
14209;SDS011;7188;56.070;12.698;2023-11-21T13:12:11;3.23;;;2.30;;
14209;SDS011;7188;56.070;12.698;2023-11-21T13:14:38;3.30;;;1.97;;
14209;SDS011;7188;56.070;12.698;2023-11-21T13:17:05;2.17;;;1.97;;
14209;SDS011;7188;56.070;12.698;2023-11-21T13:19:31;2.07;;;1.60;;
14209;SDS011;7188;56.070;12.698;2023-11-21T13:21:56;1.90;;;1.80;;
14209;SDS011;7188;56.070;12.698;2023-11-21T13:24:23;3.73;;;2.53;;
14209;SDS011;7188;56.070;12.698;2023-11-21T13:26:50;3.13;;;1.83;;
14209;SDS011;7188;56.070;12.698;2023-11-21T13:29:16;2.53;;;1.90;;
14209;SDS011;7188;56.070;12.698;2023-11-21T13:31:41;2.50;;;1.50;;
14209;SDS011;7188;56.070;12.698;2023-11-21T13:34:07;2.63;;;2.03;;
14209;SDS011;7188;56.070;12.698;2023-11-21T13:36:33;4.77;;;2.00;;
14209;SDS011;7188;56.070;12.698;2023-11-21T13:39:00;4.37;;;2.17;;
14209;SDS011;7188;56.070;12.698;2023-11-21T13:41:32;2.47;;;2.27;;
14209;SDS011;7188;56.070;12.698;2023-11-21T13:43:58;3.43;;;1.90;;
14209;SDS011;7188;56.070;12.698;2023-11-21T13:46:35;3.27;;;2.33;;
14209;SDS011;7188;56.070;12.698;2023-11-21T13:49:02;3.07;;;2.20;;
14209;SDS011;7188;56.070;12.698;2023-11-21T13:51:28;2.37;;;2.00;;
14209;SDS011;7188;56.070;12.698;2023-11-21T13:54:04;2.40;;;1.90;;
14209;SDS011;7188;56.070;12.698;2023-11-21T13:56:34;2.13;;;1.90;;
14209;SDS011;7188;56.070;12.698;2023-11-21T13:59:00;2.23;;;2.07;;
14209;SDS011;7188;56.070;12.698;2023-11-21T14:01:34;3.33;;;2.37;;
14209;SDS011;7188;56.070;12.698;2023-11-21T14:04:18;3.50;;;2.17;;
14209;SDS011;7188;56.070;12.698;2023-11-21T14:09:20;5.70;;;2.67;;
14209;SDS011;7188;56.070;12.698;2023-11-21T14:12:00;3.67;;;2.43;;
14209;SDS011;7188;56.070;12.698;2023-11-21T14:14:31;2.67;;;2.47;;
14209;SDS011;7188;56.070;12.698;2023-11-21T14:16:56;3.87;;;2.47;;
14209;SDS011;7188;56.070;12.698;2023-11-21T14:19:23;2.77;;;2.27;;
14209;SDS011;7188;56.070;12.698;2023-11-21T14:21:54;4.10;;;2.20;;
14209;SDS011;7188;56.070;12.698;2023-11-21T14:24:21;2.93;;;2.20;;
14209;SDS011;7188;56.070;12.698;2023-11-21T14:26:48;2.47;;;1.80;;
14209;SDS011;7188;56.070;12.698;2023-11-21T14:29:15;2.23;;;2.03;;
14209;SDS011;7188;56.070;12.698;2023-11-21T14:31:45;1.93;;;1.73;;
14209;SDS011;7188;56.070;12.698;2023-11-21T14:34:11;1.83;;;1.53;;
14209;SDS011;7188;56.070;12.698;2023-11-21T14:36:38;1.97;;;1.70;;
14209;SDS011;7188;56.070;12.698;2023-11-21T14:39:04;2.80;;;1.80;;
14209;SDS011;7188;56.070;12.698;2023-11-21T14:41:51;2.37;;;1.63;;
14209;SDS011;7188;56.070;12.698;2023-11-21T14:44:17;2.83;;;2.10;;
14209;SDS011;7188;56.070;12.698;2023-11-21T14:46:43;3.20;;;1.40;;
14209;SDS011;7188;56.070;12.698;2023-11-21T14:49:11;3.20;;;1.73;;
14209;SDS011;7188;56.070;12.698;2023-11-21T14:51:48;5.70;;;2.30;;
14209;SDS011;7188;56.070;12.698;2023-11-21T14:54:29;3.20;;;2.60;;
14209;SDS011;7188;56.070;12.698;2023-11-21T14:57:05;9.47;;;5.50;;
14209;SDS011;7188;56.070;12.698;2023-11-21T14:59:35;13.37;;;6.97;;